sensor_id;sensor_type;location;lat;lon;timestamp;pressure;altitude;pressure_sealevel;temperature;humidity
71996;BME280;59862;47.732;7.346;2023-02-03T00:02:26;99659.41;;;4.11;77.88
71996;BME280;59862;47.732;7.346;2023-02-03T00:04:53;99659.20;;;4.07;78.00
71996;BME280;59862;47.732;7.346;2023-02-03T00:07:20;99658.84;;;4.06;77.96
71996;BME280;59862;47.732;7.346;2023-02-03T00:09:48;99656.22;;;3.99;78.12
71996;BME280;59862;47.732;7.346;2023-02-03T00:12:15;99659.09;;;3.96;78.30
71996;BME280;59862;47.732;7.346;2023-02-03T00:14:43;99669.05;;;3.93;78.36
71996;BME280;59862;47.732;7.346;2023-02-03T00:17:10;99670.66;;;3.95;78.33
71996;BME280;59862;47.732;7.346;2023-02-03T00:19:38;99681.73;;;4.02;78.05
71996;BME280;59862;47.732;7.346;2023-02-03T00:22:05;99682.20;;;4.01;77.93
71996;BME280;59862;47.732;7.346;2023-02-03T00:24:33;99686.57;;;4.02;77.96
71996;BME280;59862;47.732;7.346;2023-02-03T00:27:00;99687.15;;;4.00;78.02
71996;BME280;59862;47.732;7.346;2023-02-03T00:29:27;99686.57;;;4.02;78.02
71996;BME280;59862;47.732;7.346;2023-02-03T00:31:55;99684.27;;;4.03;77.97
71996;BME280;59862;47.732;7.346;2023-02-03T00:34:29;99692.62;;;4.04;77.94
71996;BME280;59862;47.732;7.346;2023-02-03T00:36:57;99692.46;;;4.00;78.05
71996;BME280;59862;47.732;7.346;2023-02-03T00:39:24;99696.80;;;4.01;78.14
71996;BME280;59862;47.732;7.346;2023-02-03T00:41:52;99690.27;;;4.00;78.21
71996;BME280;59862;47.732;7.346;2023-02-03T00:44:19;99691.49;;;4.01;78.18
71996;BME280;59862;47.732;7.346;2023-02-03T00:46:46;99682.20;;;4.01;78.18
71996;BME280;59862;47.732;7.346;2023-02-03T00:49:14;99694.89;;;4.03;78.09
71996;BME280;59862;47.732;7.346;2023-02-03T00:51:41;99687.04;;;4.02;78.09
71996;BME280;59862;47.732;7.346;2023-02-03T00:54:09;99686.18;;;4.01;78.07
71996;BME280;59862;47.732;7.346;2023-02-03T00:56:36;99688.56;;;3.99;78.07
71996;BME280;59862;47.732;7.346;2023-02-03T00:59:03;99673.87;;;4.00;78.11
71996;BME280;59862;47.732;7.346;2023-02-03T01:01:31;99672.38;;;3.96;78.05
71996;BME280;59862;47.732;7.346;2023-02-03T01:03:59;99673.25;;;3.90;78.21
71996;BME280;59862;47.732;7.346;2023-02-03T01:06:27;99669.18;;;3.84;78.33
71996;BME280;59862;47.732;7.346;2023-02-03T01:08:55;99668.24;;;3.85;78.32
71996;BME280;59862;47.732;7.346;2023-02-03T01:11:25;99668.08;;;3.81;78.35
71996;BME280;59862;47.732;7.346;2023-02-03T01:13:54;99677.14;;;3.84;78.21
71996;BME280;59862;47.732;7.346;2023-02-03T01:16:23;99673.40;;;3.74;78.39
71996;BME280;59862;47.732;7.346;2023-02-03T01:18:51;99674.62;;;3.75;78.37
71996;BME280;59862;47.732;7.346;2023-02-03T01:21:21;99682.69;;;3.74;78.41
71996;BME280;59862;47.732;7.346;2023-02-03T01:23:50;99683.44;;;3.76;78.36
71996;BME280;59862;47.732;7.346;2023-02-03T01:26:20;99686.28;;;3.73;78.43
71996;BME280;59862;47.732;7.346;2023-02-03T01:28:55;99694.47;;;3.70;78.55
71996;BME280;59862;47.732;7.346;2023-02-03T01:31:26;99694.75;;;3.72;78.46
71996;BME280;59862;47.732;7.346;2023-02-03T01:33:55;99696.73;;;3.69;78.53
71996;BME280;59862;47.732;7.346;2023-02-03T01:36:24;99695.98;;;3.67;78.57
71996;BME280;59862;47.732;7.346;2023-02-03T01:38:53;99698.73;;;3.65;78.66
71996;BME280;59862;47.732;7.346;2023-02-03T01:41:27;99696.37;;;3.61;78.84
71996;BME280;59862;47.732;7.346;2023-02-03T01:43:57;99694.48;;;3.56;79.18
71996;BME280;59862;47.732;7.346;2023-02-03T01:46:40;99712.70;;;3.48;79.35
71996;BME280;59862;47.732;7.346;2023-02-03T01:49:18;99711.95;;;3.46;79.41
71996;BME280;59862;47.732;7.346;2023-02-03T01:51:46;99716.80;;;3.39;79.57
71996;BME280;59862;47.732;7.346;2023-02-03T01:54:18;99704.67;;;3.35;79.72
71996;BME280;59862;47.732;7.346;2023-02-03T01:56:49;99710.05;;;3.34;79.79
71996;BME280;59862;47.732;7.346;2023-02-03T01:59:17;99707.80;;;3.35;79.79
71996;BME280;59862;47.732;7.346;2023-02-03T02:01:46;99710.27;;;3.31;79.83
71996;BME280;59862;47.732;7.346;2023-02-03T02:04:14;99708.76;;;3.27;79.94
71996;BME280;59862;47.732;7.346;2023-02-03T02:06:41;99704.56;;;3.30;79.85
71996;BME280;59862;47.732;7.346;2023-02-03T02:09:11;99712.70;;;3.34;79.73
71996;BME280;59862;47.732;7.346;2023-02-03T02:11:38;99714.32;;;3.29;79.73
71996;BME280;59862;47.732;7.346;2023-02-03T02:14:06;99705.53;;;3.22;79.96
71996;BME280;59862;47.732;7.346;2023-02-03T02:19:37;99690.01;;;3.16;80.25
71996;BME280;59862;47.732;7.346;2023-02-03T02:22:13;99685.92;;;3.10;80.46
71996;BME280;59862;47.732;7.346;2023-02-03T02:25:08;99682.52;;;3.08;80.62
71996;BME280;59862;47.732;7.346;2023-02-03T02:33:15;99663.45;;;3.30;80.02
71996;BME280;59862;47.732;7.346;2023-02-03T02:41:16;99645.45;;;3.42;79.16
71996;BME280;59862;47.732;7.346;2023-02-03T02:44:40;99654.14;;;3.51;78.87
71996;BME280;59862;47.732;7.346;2023-02-03T02:46:45;99662.57;;;3.50;78.67
71996;BME280;59862;47.732;7.346;2023-02-03T02:49:40;99666.45;;;3.52;78.54
71996;BME280;59862;47.732;7.346;2023-02-03T02:51:51;99662.00;;;3.52;78.40
71996;BME280;59862;47.732;7.346;2023-02-03T02:54:22;99658.66;;;3.56;78.26
71996;BME280;59862;47.732;7.346;2023-02-03T02:56:58;99670.02;;;3.58;78.01
71996;BME280;59862;47.732;7.346;2023-02-03T02:59:21;99667.76;;;3.59;77.92
71996;BME280;59862;47.732;7.346;2023-02-03T03:01:48;99671.52;;;3.62;77.75
71996;BME280;59862;47.732;7.346;2023-02-03T03:04:22;99670.76;;;3.67;77.72
71996;BME280;59862;47.732;7.346;2023-02-03T03:06:59;99658.53;;;3.64;77.58
71996;BME280;59862;47.732;7.346;2023-02-03T03:09:26;99654.55;;;3.64;77.55
71996;BME280;59862;47.732;7.346;2023-02-03T03:12:00;99658.23;;;3.69;77.45
71996;BME280;59862;47.732;7.346;2023-02-03T03:14:29;99657.47;;;3.74;77.36
71996;BME280;59862;47.732;7.346;2023-02-03T03:17:01;99647.04;;;3.71;77.48
71996;BME280;59862;47.732;7.346;2023-02-03T03:19:41;99648.38;;;3.71;77.77
71996;BME280;59862;47.732;7.346;2023-02-03T03:22:10;99644.97;;;3.69;78.06
71996;BME280;59862;47.732;7.346;2023-02-03T03:24:45;99635.45;;;3.59;78.38
71996;BME280;59862;47.732;7.346;2023-02-03T03:27:15;99619.07;;;3.53;78.82
71996;BME280;59862;47.732;7.346;2023-02-03T03:29:49;99611.98;;;3.46;79.24
71996;BME280;59862;47.732;7.346;2023-02-03T03:32:13;99598.63;;;3.41;79.65
71996;BME280;59862;47.732;7.346;2023-02-03T03:34:41;99586.98;;;3.36;80.06
71996;BME280;59862;47.732;7.346;2023-02-03T03:37:37;99586.98;;;3.29;80.64
71996;BME280;59862;47.732;7.346;2023-02-03T03:42:44;99620.83;;;3.26;81.31
71996;BME280;59862;47.732;7.346;2023-02-03T03:47:58;99607.97;;;3.20;81.77
71996;BME280;59862;47.732;7.346;2023-02-03T03:50:31;99619.50;;;3.26;81.64
71996;BME280;59862;47.732;7.346;2023-02-03T03:52:56;99625.78;;;3.25;81.58
71996;BME280;59862;47.732;7.346;2023-02-03T03:55:27;99628.97;;;3.30;81.39
71996;BME280;59862;47.732;7.346;2023-02-03T03:58:12;99641.70;;;3.25;81.51
71996;BME280;59862;47.732;7.346;2023-02-03T04:00:37;99638.42;;;3.34;81.42
71996;BME280;59862;47.732;7.346;2023-02-03T04:03:10;99632.94;;;3.37;81.43
71996;BME280;59862;47.732;7.346;2023-02-03T04:05:38;99629.70;;;3.46;81.19
71996;BME280;59862;47.732;7.346;2023-02-03T04:08:05;99627.97;;;3.52;81.13
71996;BME280;59862;47.732;7.346;2023-02-03T04:10:35;99611.62;;;3.65;80.83
71996;BME280;59862;47.732;7.346;2023-02-03T04:13:05;99613.41;;;3.64;80.64
71996;BME280;59862;47.732;7.346;2023-02-03T04:15:33;99618.44;;;3.62;80.83
71996;BME280;59862;47.732;7.346;2023-02-03T04:18:01;99623.75;;;3.62;80.86
71996;BME280;59862;47.732;7.346;2023-02-03T04:20:30;99629.64;;;3.60;80.90
71996;BME280;59862;47.732;7.346;2023-02-03T04:22:57;99618.44;;;3.62;80.92
71996;BME280;59862;47.732;7.346;2023-02-03T04:25:26;99624.83;;;3.59;81.11
71996;BME280;59862;47.732;7.346;2023-02-03T04:27:54;99624.61;;;3.62;81.27
71996;BME280;59862;47.732;7.346;2023-02-03T04:30:21;99624.72;;;3.61;81.32
71996;BME280;59862;47.732;7.346;2023-02-03T04:32:49;99617.50;;;3.63;81.33
71996;BME280;59862;47.732;7.346;2023-02-03T04:35:16;99621.77;;;3.65;81.28
71996;BME280;59862;47.732;7.346;2023-02-03T04:37:45;99618.81;;;3.70;81.20
71996;BME280;59862;47.732;7.346;2023-02-03T04:40:12;99615.86;;;3.74;81.13
71996;BME280;59862;47.732;7.346;2023-02-03T04:42:40;99630.98;;;3.79;80.97
71996;BME280;59862;47.732;7.346;2023-02-03T04:45:09;99656.77;;;3.84;80.88
71996;BME280;59862;47.732;7.346;2023-02-03T04:47:37;99669.74;;;3.89;80.82
71996;BME280;59862;47.732;7.346;2023-02-03T04:50:05;99667.45;;;3.90;80.63
71996;BME280;59862;47.732;7.346;2023-02-03T04:52:33;99679.95;;;3.95;80.41
71996;BME280;59862;47.732;7.346;2023-02-03T04:55:00;99682.86;;;4.05;80.18
71996;BME280;59862;47.732;7.346;2023-02-03T04:57:29;99682.92;;;4.10;79.86
71996;BME280;59862;47.732;7.346;2023-02-03T04:59:56;99670.03;;;4.11;79.77
71996;BME280;59862;47.732;7.346;2023-02-03T05:02:24;99677.14;;;4.11;79.66
71996;BME280;59862;47.732;7.346;2023-02-03T05:04:51;99678.16;;;4.15;79.65
71996;BME280;59862;47.732;7.346;2023-02-03T05:07:19;99682.31;;;4.19;79.49
71996;BME280;59862;47.732;7.346;2023-02-03T05:09:46;99683.06;;;4.21;79.46
71996;BME280;59862;47.732;7.346;2023-02-03T05:12:13;99678.16;;;4.15;79.61
71996;BME280;59862;47.732;7.346;2023-02-03T05:14:41;99679.84;;;4.16;79.65
71996;BME280;59862;47.732;7.346;2023-02-03T05:17:08;99687.41;;;4.22;79.64
71996;BME280;59862;47.732;7.346;2023-02-03T05:19:35;99687.68;;;4.25;79.53
71996;BME280;59862;47.732;7.346;2023-02-03T05:22:03;99689.59;;;4.23;79.61
71996;BME280;59862;47.732;7.346;2023-02-03T05:24:30;99686.08;;;4.22;79.69
71996;BME280;59862;47.732;7.346;2023-02-03T05:26:58;99687.41;;;4.22;79.75
71996;BME280;59862;47.732;7.346;2023-02-03T05:29:25;99668.75;;;4.17;80.01
71996;BME280;59862;47.732;7.346;2023-02-03T05:31:52;99671.69;;;4.19;80.11
71996;BME280;59862;47.732;7.346;2023-02-03T05:34:20;99670.36;;;4.19;80.18
71996;BME280;59862;47.732;7.346;2023-02-03T05:36:47;99668.45;;;4.21;80.20
71996;BME280;59862;47.732;7.346;2023-02-03T05:39:15;99655.47;;;4.17;80.23
71996;BME280;59862;47.732;7.346;2023-02-03T05:41:42;99650.74;;;4.15;80.36
71996;BME280;59862;47.732;7.346;2023-02-03T05:44:20;99652.34;;;4.17;80.37
71996;BME280;59862;47.732;7.346;2023-02-03T05:46:49;99654.09;;;4.11;80.54
71996;BME280;59862;47.732;7.346;2023-02-03T05:49:17;99667.17;;;4.07;80.73
71996;BME280;59862;47.732;7.346;2023-02-03T05:51:46;99665.48;;;4.06;80.80
71996;BME280;59862;47.732;7.346;2023-02-03T05:54:13;99650.41;;;4.07;80.84
71996;BME280;59862;47.732;7.346;2023-02-03T05:56:41;99649.36;;;4.09;80.85
71996;BME280;59862;47.732;7.346;2023-02-03T05:59:09;99652.41;;;4.03;80.98
71996;BME280;59862;47.732;7.346;2023-02-03T06:01:37;99651.30;;;4.00;81.03
71996;BME280;59862;47.732;7.346;2023-02-03T06:04:04;99646.64;;;3.97;81.14
71996;BME280;59862;47.732;7.346;2023-02-03T06:06:33;99641.42;;;4.02;81.19
71996;BME280;59862;47.732;7.346;2023-02-03T06:09:03;99645.88;;;4.02;81.07
71996;BME280;59862;47.732;7.346;2023-02-03T06:11:31;99648.59;;;4.07;80.95
71996;BME280;59862;47.732;7.346;2023-02-03T06:13:59;99641.03;;;4.01;80.87
71996;BME280;59862;47.732;7.346;2023-02-03T06:16:27;99650.91;;;3.99;80.79
71996;BME280;59862;47.732;7.346;2023-02-03T06:18:55;99647.84;;;4.05;80.66
71996;BME280;59862;47.732;7.346;2023-02-03T06:21:28;99653.38;;;4.02;80.59
71996;BME280;59862;47.732;7.346;2023-02-03T06:23:55;99662.67;;;4.02;80.60
71996;BME280;59862;47.732;7.346;2023-02-03T06:26:22;99663.77;;;4.05;80.51
71996;BME280;59862;47.732;7.346;2023-02-03T06:28:50;99666.63;;;4.09;80.31
71996;BME280;59862;47.732;7.346;2023-02-03T06:31:18;99663.16;;;4.14;80.16
71996;BME280;59862;47.732;7.346;2023-02-03T06:33:45;99662.36;;;4.07;80.06
71996;BME280;59862;47.732;7.346;2023-02-03T06:36:12;99665.37;;;4.08;80.14
71996;BME280;59862;47.732;7.346;2023-02-03T06:38:40;99663.70;;;4.07;80.03
71996;BME280;59862;47.732;7.346;2023-02-03T06:41:07;99662.45;;;4.05;80.11
71996;BME280;59862;47.732;7.346;2023-02-03T06:43:35;99672.48;;;4.07;80.13
71996;BME280;59862;47.732;7.346;2023-02-03T06:46:02;99670.22;;;4.08;80.07
71996;BME280;59862;47.732;7.346;2023-02-03T06:48:30;99676.28;;;4.10;79.97
71996;BME280;59862;47.732;7.346;2023-02-03T06:50:57;99681.41;;;4.13;79.89
71996;BME280;59862;47.732;7.346;2023-02-03T06:53:25;99681.59;;;4.10;79.92
71996;BME280;59862;47.732;7.346;2023-02-03T06:55:52;99689.56;;;4.10;79.90
71996;BME280;59862;47.732;7.346;2023-02-03T06:58:19;99700.47;;;4.13;79.80
71996;BME280;59862;47.732;7.346;2023-02-03T07:00:47;99712.70;;;4.15;79.82
71996;BME280;59862;47.732;7.346;2023-02-03T07:03:14;99718.48;;;4.15;79.72
71996;BME280;59862;47.732;7.346;2023-02-03T07:05:42;99713.86;;;4.11;80.01
71996;BME280;59862;47.732;7.346;2023-02-03T07:08:09;99713.86;;;4.11;79.94
71996;BME280;59862;47.732;7.346;2023-02-03T07:10:36;99724.27;;;4.14;79.94
71996;BME280;59862;47.732;7.346;2023-02-03T07:13:05;99726.75;;;4.10;79.91
71996;BME280;59862;47.732;7.346;2023-02-03T07:15:33;99721.44;;;4.10;79.85
71996;BME280;59862;47.732;7.346;2023-02-03T07:18:00;99734.53;;;4.13;79.78
71996;BME280;59862;47.732;7.346;2023-02-03T07:20:28;99731.46;;;4.19;79.57
71996;BME280;59862;47.732;7.346;2023-02-03T07:22:58;99724.13;;;4.23;79.37
71996;BME280;59862;47.732;7.346;2023-02-03T07:25:25;99718.34;;;4.23;79.30
71996;BME280;59862;47.732;7.346;2023-02-03T07:27:53;99728.20;;;4.28;79.19
71996;BME280;59862;47.732;7.346;2023-02-03T07:30:21;99730.61;;;4.38;78.89
71996;BME280;59862;47.732;7.346;2023-02-03T07:32:49;99740.49;;;4.36;78.84
71996;BME280;59862;47.732;7.346;2023-02-03T07:35:18;99754.19;;;4.30;78.96
71996;BME280;59862;47.732;7.346;2023-02-03T07:37:46;99744.95;;;4.36;79.00
71996;BME280;59862;47.732;7.346;2023-02-03T07:40:14;99735.01;;;4.32;78.96
71996;BME280;59862;47.732;7.346;2023-02-03T07:42:48;99731.94;;;4.38;79.03
71996;BME280;59862;47.732;7.346;2023-02-03T07:45:17;99729.45;;;4.42;79.02
71996;BME280;59862;47.732;7.346;2023-02-03T07:47:45;99720.95;;;4.37;78.99
71996;BME280;59862;47.732;7.346;2023-02-03T07:50:12;99729.09;;;4.41;79.06
71996;BME280;59862;47.732;7.346;2023-02-03T07:52:40;99745.62;;;4.39;79.08
71996;BME280;59862;47.732;7.346;2023-02-03T07:55:08;99744.50;;;4.49;79.00
71996;BME280;59862;47.732;7.346;2023-02-03T07:57:35;99742.90;;;4.46;79.03
71996;BME280;59862;47.732;7.346;2023-02-03T08:00:04;99736.03;;;4.37;79.26
71996;BME280;59862;47.732;7.346;2023-02-03T08:02:31;99734.41;;;4.41;79.69
71996;BME280;59862;47.732;7.346;2023-02-03T08:04:59;99731.19;;;4.36;79.75
71996;BME280;59862;47.732;7.346;2023-02-03T08:07:26;99730.30;;;4.43;79.66
71996;BME280;59862;47.732;7.346;2023-02-03T08:09:53;99712.88;;;4.51;79.54
71996;BME280;59862;47.732;7.346;2023-02-03T08:12:21;99690.45;;;4.55;79.43
71996;BME280;59862;47.732;7.346;2023-02-03T08:14:48;99674.93;;;4.49;79.45
71996;BME280;59862;47.732;7.346;2023-02-03T08:17:15;99663.00;;;4.42;79.28
71996;BME280;59862;47.732;7.346;2023-02-03T08:19:43;99664.34;;;4.42;79.25
71996;BME280;59862;47.732;7.346;2023-02-03T08:22:10;99669.03;;;4.64;79.16
71996;BME280;59862;47.732;7.346;2023-02-03T08:24:40;99658.67;;;5.04;77.48
71996;BME280;59862;47.732;7.346;2023-02-03T08:27:09;99660.72;;;5.55;75.30
71996;BME280;59862;47.732;7.346;2023-02-03T08:29:36;99661.66;;;5.67;74.27
71996;BME280;59862;47.732;7.346;2023-02-03T08:32:06;99666.45;;;5.80;73.48
71996;BME280;59862;47.732;7.346;2023-02-03T08:34:33;99681.67;;;6.20;72.55
71996;BME280;59862;47.732;7.346;2023-02-03T08:37:00;99694.39;;;6.22;71.43
71996;BME280;59862;47.732;7.346;2023-02-03T08:39:28;99684.26;;;5.97;71.76
71996;BME280;59862;47.732;7.346;2023-02-03T08:41:55;99694.59;;;5.84;72.53
71996;BME280;59862;47.732;7.346;2023-02-03T08:44:23;99682.81;;;6.04;71.61
71996;BME280;59862;47.732;7.346;2023-02-03T08:46:52;99673.73;;;6.01;71.73
71996;BME280;59862;47.732;7.346;2023-02-03T08:49:20;99680.89;;;6.06;71.30
71996;BME280;59862;47.732;7.346;2023-02-03T08:51:48;99688.80;;;6.13;71.24
71996;BME280;59862;47.732;7.346;2023-02-03T08:54:16;99685.53;;;6.16;71.57
71996;BME280;59862;47.732;7.346;2023-02-03T08:56:43;99691.94;;;5.89;71.99
71996;BME280;59862;47.732;7.346;2023-02-03T08:59:12;99703.72;;;5.92;72.04
71996;BME280;59862;47.732;7.346;2023-02-03T09:01:41;99693.88;;;5.87;71.97
71996;BME280;59862;47.732;7.346;2023-02-03T09:04:13;99693.41;;;5.93;72.20
71996;BME280;59862;47.732;7.346;2023-02-03T09:06:43;99694.74;;;5.93;72.23
71996;BME280;59862;47.732;7.346;2023-02-03T09:09:10;99699.05;;;6.01;71.73
71996;BME280;59862;47.732;7.346;2023-02-03T09:11:39;99699.40;;;6.02;71.33
71996;BME280;59862;47.732;7.346;2023-02-03T09:14:07;99704.37;;;6.25;71.08
71996;BME280;59862;47.732;7.346;2023-02-03T09:16:35;99702.40;;;6.51;70.78
71996;BME280;59862;47.732;7.346;2023-02-03T09:19:02;99706.50;;;6.84;69.73
71996;BME280;59862;47.732;7.346;2023-02-03T09:21:30;99694.97;;;6.83;69.18
71996;BME280;59862;47.732;7.346;2023-02-03T09:23:59;99694.14;;;6.88;69.26
71996;BME280;59862;47.732;7.346;2023-02-03T09:26:29;99702.77;;;7.03;68.85
71996;BME280;59862;47.732;7.346;2023-02-03T09:28:56;99701.17;;;7.06;68.35
71996;BME280;59862;47.732;7.346;2023-02-03T09:31:24;99708.73;;;7.23;68.15
71996;BME280;59862;47.732;7.346;2023-02-03T09:33:51;99711.37;;;7.56;67.20
71996;BME280;59862;47.732;7.346;2023-02-03T09:36:19;99703.56;;;7.87;66.69
71996;BME280;59862;47.732;7.346;2023-02-03T09:38:46;99706.16;;;7.66;66.53
71996;BME280;59862;47.732;7.346;2023-02-03T09:46:59;99703.36;;;7.68;67.15
71996;BME280;59862;47.732;7.346;2023-02-03T09:49:43;99707.81;;;7.89;66.54
71996;BME280;59862;47.732;7.346;2023-02-03T09:52:17;99724.75;;;7.62;67.32
71996;BME280;59862;47.732;7.346;2023-02-03T09:54:55;99722.80;;;7.14;69.35
71996;BME280;59862;47.732;7.346;2023-02-03T09:57:25;99743.88;;;7.01;70.09
71996;BME280;59862;47.732;7.346;2023-02-03T09:59:59;99753.95;;;6.97;70.30
71996;BME280;59862;47.732;7.346;2023-02-03T10:05:14;99769.01;;;7.09;70.28
71996;BME280;59862;47.732;7.346;2023-02-03T10:10:34;99765.45;;;6.98;71.27
71996;BME280;59862;47.732;7.346;2023-02-03T10:18:24;99783.23;;;6.75;72.16
71996;BME280;59862;47.732;7.346;2023-02-03T10:20:59;99781.80;;;6.53;72.89
71996;BME280;59862;47.732;7.346;2023-02-03T10:23:34;99778.27;;;6.47;73.61
71996;BME280;59862;47.732;7.346;2023-02-03T10:26:07;99776.93;;;6.47;74.11
71996;BME280;59862;47.732;7.346;2023-02-03T10:28:41;99770.20;;;6.36;75.13
71996;BME280;59862;47.732;7.346;2023-02-03T10:31:18;99764.14;;;6.34;75.73
71996;BME280;59862;47.732;7.346;2023-02-03T10:33:42;99755.55;;;6.41;75.80
71996;BME280;59862;47.732;7.346;2023-02-03T10:36:26;99763.76;;;6.33;75.87
71996;BME280;59862;47.732;7.346;2023-02-03T10:39:04;99762.61;;;6.48;75.63
71996;BME280;59862;47.732;7.346;2023-02-03T10:41:31;99762.53;;;6.55;74.54
71996;BME280;59862;47.732;7.346;2023-02-03T10:44:01;99753.28;;;6.48;74.24
71996;BME280;59862;47.732;7.346;2023-02-03T10:46:37;99756.45;;;6.47;74.43
71996;BME280;59862;47.732;7.346;2023-02-03T10:49:00;99760.89;;;6.41;74.60
71996;BME280;59862;47.732;7.346;2023-02-03T10:51:33;99748.47;;;6.53;74.90
71996;BME280;59862;47.732;7.346;2023-02-03T10:53:58;99746.73;;;6.41;74.70
71996;BME280;59862;47.732;7.346;2023-02-03T10:56:36;99730.22;;;6.36;75.16
71996;BME280;59862;47.732;7.346;2023-02-03T10:59:05;99735.09;;;6.42;75.12
71996;BME280;59862;47.732;7.346;2023-02-03T11:01:46;99729.71;;;6.60;75.17
71996;BME280;59862;47.732;7.346;2023-02-03T11:04:28;99734.55;;;6.95;74.07
71996;BME280;59862;47.732;7.346;2023-02-03T11:06:58;99729.53;;;6.85;73.82
71996;BME280;59862;47.732;7.346;2023-02-03T11:09:40;99705.70;;;7.17;73.43
71996;BME280;59862;47.732;7.346;2023-02-03T11:12:19;99725.23;;;7.23;72.66
71996;BME280;59862;47.732;7.346;2023-02-03T11:14:51;99739.90;;;7.12;73.24
71996;BME280;59862;47.732;7.346;2023-02-03T11:17:24;99727.52;;;7.49;72.71
71996;BME280;59862;47.732;7.346;2023-02-03T11:19:54;99726.07;;;7.56;71.70
71996;BME280;59862;47.732;7.346;2023-02-03T11:22:31;99723.52;;;7.49;71.97
71996;BME280;59862;47.732;7.346;2023-02-03T11:25:01;99714.05;;;7.56;71.36
71996;BME280;59862;47.732;7.346;2023-02-03T11:27:31;99738.94;;;7.18;72.14
71996;BME280;59862;47.732;7.346;2023-02-03T11:30:14;99749.00;;;7.26;72.63
71996;BME280;59862;47.732;7.346;2023-02-03T11:32:44;99750.37;;;7.53;71.65
71996;BME280;59862;47.732;7.346;2023-02-03T11:35:24;99727.30;;;7.52;71.61
71996;BME280;59862;47.732;7.346;2023-02-03T11:37:54;99697.30;;;7.43;71.54
71996;BME280;59862;47.732;7.346;2023-02-03T11:40:30;99673.90;;;7.36;71.71
71996;BME280;59862;47.732;7.346;2023-02-03T11:43:02;99667.30;;;7.56;71.58
71996;BME280;59862;47.732;7.346;2023-02-03T11:45:46;99634.79;;;7.46;71.48
71996;BME280;59862;47.732;7.346;2023-02-03T11:50:58;99683.72;;;7.46;71.60
71996;BME280;59862;47.732;7.346;2023-02-03T11:56:12;99694.36;;;6.91;73.41
71996;BME280;59862;47.732;7.346;2023-02-03T11:58:59;99693.86;;;6.80;73.59
71996;BME280;59862;47.732;7.346;2023-02-03T12:01:46;99684.15;;;6.74;73.82
71996;BME280;59862;47.732;7.346;2023-02-03T12:18:11;99681.30;;;7.10;72.81
71996;BME280;59862;47.732;7.346;2023-02-03T12:20:40;99689.80;;;7.32;72.68
71996;BME280;59862;47.732;7.346;2023-02-03T12:25:59;99675.70;;;7.46;72.62
71996;BME280;59862;47.732;7.346;2023-02-03T12:31:12;99688.45;;;7.48;72.29
71996;BME280;59862;47.732;7.346;2023-02-03T12:33:45;99689.06;;;7.24;72.38
71996;BME280;59862;47.732;7.346;2023-02-03T12:39:01;99636.63;;;7.29;73.25
71996;BME280;59862;47.732;7.346;2023-02-03T12:41:37;99640.63;;;7.34;72.80
71996;BME280;59862;47.732;7.346;2023-02-03T12:44:12;99632.75;;;7.38;73.05
71996;BME280;59862;47.732;7.346;2023-02-03T12:46:43;99631.04;;;7.37;72.76
71996;BME280;59862;47.732;7.346;2023-02-03T12:49:33;99627.05;;;7.32;72.35
71996;BME280;59862;47.732;7.346;2023-02-03T12:54:51;99614.58;;;6.88;73.62
71996;BME280;59862;47.732;7.346;2023-02-03T12:57:33;99609.23;;;6.77;74.63
71996;BME280;59862;47.732;7.346;2023-02-03T13:03:12;99631.30;;;6.73;74.11
71996;BME280;59862;47.732;7.346;2023-02-03T13:05:41;99638.09;;;6.83;74.15
71996;BME280;59862;47.732;7.346;2023-02-03T13:10:44;99637.13;;;6.89;73.74
71996;BME280;59862;47.732;7.346;2023-02-03T13:13:12;99636.17;;;6.91;73.71
71996;BME280;59862;47.732;7.346;2023-02-03T13:15:46;99633.73;;;6.87;73.68
71996;BME280;59862;47.732;7.346;2023-02-03T13:20:47;99632.88;;;6.98;73.62
71996;BME280;59862;47.732;7.346;2023-02-03T13:23:15;99602.56;;;6.99;73.37
71996;BME280;59862;47.732;7.346;2023-02-03T13:26:09;99593.34;;;6.81;73.10
71996;BME280;59862;47.732;7.346;2023-02-03T13:31:45;99586.29;;;6.80;73.33
71996;BME280;59862;47.732;7.346;2023-02-03T13:40:03;99599.89;;;6.77;72.67
71996;BME280;59862;47.732;7.346;2023-02-03T13:42:33;99584.23;;;6.89;72.23
71996;BME280;59862;47.732;7.346;2023-02-03T13:47:47;99591.28;;;6.90;70.86
71996;BME280;59862;47.732;7.346;2023-02-03T13:50:23;99590.80;;;6.96;70.00
71996;BME280;59862;47.732;7.346;2023-02-03T13:53:05;99593.48;;;7.02;69.79
71996;BME280;59862;47.732;7.346;2023-02-03T13:55:38;99584.50;;;6.97;69.78
71996;BME280;59862;47.732;7.346;2023-02-03T13:58:31;99586.79;;;6.96;69.66
71996;BME280;59862;47.732;7.346;2023-02-03T14:03:44;99616.50;;;6.92;70.25
71996;BME280;59862;47.732;7.346;2023-02-03T14:09:21;99606.80;;;6.85;70.65
71996;BME280;59862;47.732;7.346;2023-02-03T14:11:50;99600.14;;;6.79;71.19
71996;BME280;59862;47.732;7.346;2023-02-03T14:16:50;99599.28;;;6.79;71.26
71996;BME280;59862;47.732;7.346;2023-02-03T14:21:55;99580.98;;;6.69;71.82
71996;BME280;59862;47.732;7.346;2023-02-03T14:24:32;99589.59;;;6.67;71.85
71996;BME280;59862;47.732;7.346;2023-02-03T14:27:02;99599.39;;;6.72;71.99
71996;BME280;59862;47.732;7.346;2023-02-03T14:29:32;99598.19;;;6.70;71.93
71996;BME280;59862;47.732;7.346;2023-02-03T14:32:09;99602.67;;;6.81;71.94
71996;BME280;59862;47.732;7.346;2023-02-03T14:34:49;99610.30;;;6.80;71.59
71996;BME280;59862;47.732;7.346;2023-02-03T14:37:24;99604.14;;;6.79;71.61
71996;BME280;59862;47.732;7.346;2023-02-03T14:48:46;99625.83;;;6.80;71.77
71996;BME280;59862;47.732;7.346;2023-02-03T14:54:22;99635.91;;;6.77;71.57
71996;BME280;59862;47.732;7.346;2023-02-03T14:59:58;99654.95;;;6.83;71.77
71996;BME280;59862;47.732;7.346;2023-02-03T15:02:28;99655.08;;;6.82;71.36
71996;BME280;59862;47.732;7.346;2023-02-03T15:07:47;99653.14;;;6.84;71.28
71996;BME280;59862;47.732;7.346;2023-02-03T15:10:22;99659.08;;;6.82;71.37
71996;BME280;59862;47.732;7.346;2023-02-03T15:12:52;99647.08;;;6.82;71.15
71996;BME280;59862;47.732;7.346;2023-02-03T15:15:28;99643.18;;;6.75;71.03
71996;BME280;59862;47.732;7.346;2023-02-03T15:17:58;99638.92;;;6.72;71.17
71996;BME280;59862;47.732;7.346;2023-02-03T15:20:40;99629.95;;;6.68;71.15
71996;BME280;59862;47.732;7.346;2023-02-03T15:23:01;99626.06;;;6.72;71.29